Time;durP1;ratioP1;P1;durP2;ratioP2;P2;SDS_P1;SDS_P2;PMS_P1;PMS_P2;Temp;Humidity;BMP_temperature;BMP_pressure;BME280_temperature;BME280_humidity;BME280_pressure;Samples;Min_cycle;Max_cycle;Signal;HPM_P1;HPM_P2
2022/03/12 00:00:01;;;;;;;4.30;4.00;;;;;;;;;;4980416;28;20789;-59
2022/03/12 00:02:32;;;;;;;3.90;3.60;;;;;;;;;;4981354;28;20795;-59
2022/03/12 00:04:58;;;;;;;4.50;3.93;;;;;;;;;;4981477;28;20427;-59
2022/03/12 00:07:27;;;;;;;5.30;4.47;;;;;;;;;;4978103;28;20467;-59
2022/03/12 00:09:54;;;;;;;5.13;4.63;;;;;;;;;;4985061;28;20920;-59
2022/03/12 00:12:21;;;;;;;4.97;4.57;;;;;;;;;;4985063;28;20437;-59
2022/03/12 00:14:48;;;;;;;5.10;4.60;;;;;;;;;;4982676;28;20476;-59
2022/03/12 00:17:15;;;;;;;6.97;4.43;;;;;;;;;;4980745;28;20774;-59
2022/03/12 00:19:42;;;;;;;4.83;4.30;;;;;;;;;;4983288;28;20434;-59
2022/03/12 00:22:09;;;;;;;4.60;4.20;;;;;;;;;;4986927;28;20998;-59
2022/03/12 00:24:38;;;;;;;7.57;4.30;;;;;;;;;;4980119;28;20913;-59
2022/03/12 00:27:06;;;;;;;5.50;4.53;;;;;;;;;;4981208;28;20470;-60
2022/03/12 00:29:32;;;;;;;4.33;3.10;;;;;;;;;;4981112;28;20466;-59
2022/03/12 00:31:58;;;;;;;3.90;3.60;;;;;;;;;;4984553;28;20410;-59
2022/03/12 00:34:24;;;;;;;4.30;3.90;;;;;;;;;;4967320;28;20461;-58
2022/03/12 00:36:50;;;;;;;8.23;5.10;;;;;;;;;;4981758;28;20541;-59
2022/03/12 00:39:17;;;;;;;4.10;3.80;;;;;;;;;;4980754;28;20705;-58
2022/03/12 00:41:43;;;;;;;6.27;3.57;;;;;;;;;;4981162;28;20448;-58
2022/03/12 00:44:12;;;;;;;8.80;3.57;;;;;;;;;;4981151;28;20415;-58
2022/03/12 00:46:39;;;;;;;3.83;3.53;;;;;;;;;;4982154;28;20455;-59
2022/03/12 00:49:05;;;;;;;4.83;4.43;;;;;;;;;;4984381;28;20469;-58
2022/03/12 00:51:31;;;;;;;5.97;4.50;;;;;;;;;;4984101;28;20473;-58
2022/03/12 00:53:57;;;;;;;3.30;3.10;;;;;;;;;;4980667;28;20459;-58
2022/03/12 00:56:23;;;;;;;5.80;4.00;;;;;;;;;;4979297;28;20867;-58
2022/03/12 00:58:49;;;;;;;4.00;3.60;;;;;;;;;;4984144;28;20465;-58
2022/03/12 01:01:17;;;;;;;4.57;4.07;;;;;;;;;;4984208;28;20525;-58
2022/03/12 01:03:43;;;;;;;6.37;5.23;;;;;;;;;;4982300;28;20183;-59
2022/03/12 01:06:10;;;;;;;5.67;4.43;;;;;;;;;;4980632;28;20466;-58
2022/03/12 01:08:36;;;;;;;3.63;3.37;;;;;;;;;;4970962;28;20786;-58
2022/03/12 01:11:05;;;;;;;3.90;3.57;;;;;;;;;;4984764;28;20918;-59
2022/03/12 01:13:31;;;;;;;4.67;3.90;;;;;;;;;;4975871;28;20427;-58
2022/03/12 01:15:57;;;;;;;3.80;3.60;;;;;;;;;;4983940;28;20993;-58
2022/03/12 01:18:24;;;;;;;4.77;4.27;;;;;;;;;;4983889;28;20437;-58
2022/03/12 01:20:51;;;;;;;3.97;3.67;;;;;;;;;;4981016;28;20432;-58
2022/03/12 01:23:18;;;;;;;7.17;3.60;;;;;;;;;;4980339;28;20419;-58
2022/03/12 01:25:45;;;;;;;3.63;3.33;;;;;;;;;;4982462;28;20792;-58
2022/03/12 01:28:12;;;;;;;4.13;3.83;;;;;;;;;;4983406;28;20470;-58
2022/03/12 01:30:41;;;;;;;4.40;4.10;;;;;;;;;;4964209;28;20439;-58
2022/03/12 01:33:07;;;;;;;4.20;3.37;;;;;;;;;;4983641;28;20402;-58
2022/03/12 01:35:33;;;;;;;5.83;3.80;;;;;;;;;;4983222;28;20439;-59
2022/03/12 01:37:59;;;;;;;3.93;3.63;;;;;;;;;;4966654;28;20472;-58
2022/03/12 01:40:25;;;;;;;3.70;3.40;;;;;;;;;;4965719;28;20444;-59
2022/03/12 01:42:51;;;;;;;5.77;4.43;;;;;;;;;;4962973;28;20845;-58
2022/03/12 01:45:23;;;;;;;4.20;3.67;;;;;;;;;;4985336;28;20900;-59
2022/03/12 01:47:49;;;;;;;7.13;3.63;;;;;;;;;;4975386;28;21116;-59
2022/03/12 01:50:19;;;;;;;6.57;3.77;;;;;;;;;;4983420;28;20418;-59
2022/03/12 01:52:45;;;;;;;5.10;3.70;;;;;;;;;;4981275;28;21089;-59
2022/03/12 01:55:11;;;;;;;3.57;3.30;;;;;;;;;;4979867;28;20423;-59
2022/03/12 01:57:37;;;;;;;4.13;3.40;;;;;;;;;;4987806;28;20657;-58
2022/03/12 02:00:04;;;;;;;3.70;3.37;;;;;;;;;;4979823;28;20506;-59
2022/03/12 02:02:30;;;;;;;4.33;3.37;;;;;;;;;;4991303;28;20432;-58
2022/03/12 02:04:56;;;;;;;6.30;3.57;;;;;;;;;;4962369;28;20772;-58
2022/03/12 02:07:22;;;;;;;12.23;3.30;;;;;;;;;;4979814;28;20210;-60
2022/03/12 02:09:49;;;;;;;4.40;3.00;;;;;;;;;;4982226;28;20498;-59
2022/03/12 02:12:15;;;;;;;4.00;3.70;;;;;;;;;;4983223;28;20935;-60
2022/03/12 02:14:41;;;;;;;3.70;3.47;;;;;;;;;;4981373;28;20422;-59
2022/03/12 02:17:11;;;;;;;3.23;3.13;;;;;;;;;;4984529;28;20520;-59
2022/03/12 02:19:38;;;;;;;4.63;3.13;;;;;;;;;;4982097;28;20249;-59
2022/03/12 02:22:14;;;;;;;4.23;3.93;;;;;;;;;;4984518;28;20433;-59
2022/03/12 02:24:40;;;;;;;3.07;2.97;;;;;;;;;;4981155;28;20426;-58
2022/03/12 02:27:10;;;;;;;4.20;3.37;;;;;;;;;;4979712;28;20470;-58
2022/03/12 02:29:37;;;;;;;3.43;3.13;;;;;;;;;;4980647;28;20855;-58
2022/03/12 02:32:06;;;;;;;3.77;3.60;;;;;;;;;;4984067;28;20422;-59
2022/03/12 02:34:42;;;;;;;3.33;3.23;;;;;;;;;;4979604;28;20425;-59
2022/03/12 02:37:09;;;;;;;4.47;3.20;;;;;;;;;;4979505;28;20427;-59
2022/03/12 02:39:38;;;;;;;6.33;3.93;;;;;;;;;;4980185;28;20462;-59
2022/03/12 02:42:05;;;;;;;4.27;3.80;;;;;;;;;;4983128;28;20433;-59
2022/03/12 02:44:31;;;;;;;4.40;4.10;;;;;;;;;;4982595;28;20426;-60
2022/03/12 02:47:16;;;;;;;4.70;4.40;;;;;;;;;;4980907;28;20463;-59
2022/03/12 02:49:43;;;;;;;4.50;3.90;;;;;;;;;;4974578;28;20944;-59
2022/03/12 02:52:09;;;;;;;3.50;3.10;;;;;;;;;;4984884;28;20458;-59
2022/03/12 02:54:35;;;;;;;5.03;3.23;;;;;;;;;;4968262;28;21073;-59
2022/03/12 02:57:03;;;;;;;3.47;3.27;;;;;;;;;;4985453;28;20477;-59
2022/03/12 02:59:29;;;;;;;3.77;3.30;;;;;;;;;;4986437;28;20430;-58
2022/03/12 03:02:00;;;;;;;3.50;3.30;;;;;;;;;;4991135;28;20458;-59
2022/03/12 03:04:26;;;;;;;4.63;3.63;;;;;;;;;;4989698;28;20465;-59
2022/03/12 03:06:52;;;;;;;3.63;3.37;;;;;;;;;;4978309;28;20454;-59
2022/03/12 03:09:18;;;;;;;3.47;3.17;;;;;;;;;;4984010;28;20572;-59
2022/03/12 03:11:44;;;;;;;5.53;4.00;;;;;;;;;;4985048;28;20564;-59
2022/03/12 03:14:12;;;;;;;3.53;3.23;;;;;;;;;;4986141;28;20414;-59
2022/03/12 03:16:39;;;;;;;3.60;3.40;;;;;;;;;;4984821;28;20432;-59
2022/03/12 03:19:06;;;;;;;3.33;3.03;;;;;;;;;;4967841;28;20530;-59
2022/03/12 03:21:34;;;;;;;4.77;4.03;;;;;;;;;;4977981;28;20818;-59
2022/03/12 03:24:00;;;;;;;5.03;3.80;;;;;;;;;;4968512;28;20522;-59
2022/03/12 03:26:35;;;;;;;3.50;3.30;;;;;;;;;;4986026;28;20461;-59
2022/03/12 03:29:01;;;;;;;5.33;4.13;;;;;;;;;;4986853;28;20410;-59
2022/03/12 03:31:27;;;;;;;17.10;4.10;;;;;;;;;;4986013;28;20410;-59
2022/03/12 03:33:53;;;;;;;9.30;3.37;;;;;;;;;;4982605;28;20537;-59
2022/03/12 03:36:19;;;;;;;4.10;3.57;;;;;;;;;;4988893;28;20434;-59
2022/03/12 03:38:45;;;;;;;4.17;3.87;;;;;;;;;;4983535;28;20500;-59
2022/03/12 03:41:11;;;;;;;7.63;3.40;;;;;;;;;;4982399;28;20430;-59
2022/03/12 03:43:38;;;;;;;4.80;3.67;;;;;;;;;;4983414;28;20423;-59
2022/03/12 03:46:04;;;;;;;3.90;3.67;;;;;;;;;;4985697;28;20430;-59
2022/03/12 03:48:31;;;;;;;4.17;2.90;;;;;;;;;;4985535;28;20804;-59
2022/03/12 03:50:57;;;;;;;4.10;3.70;;;;;;;;;;4982253;28;20423;-59
2022/03/12 03:53:26;;;;;;;6.20;3.40;;;;;;;;;;4981926;28;20467;-59
2022/03/12 03:55:54;;;;;;;6.27;3.80;;;;;;;;;;4985113;28;20426;-59
2022/03/12 03:58:20;;;;;;;13.00;3.23;;;;;;;;;;4986569;28;20467;-59
2022/03/12 04:00:58;;;;;;;3.33;2.90;;;;;;;;;;4984565;28;20426;-59
2022/03/12 04:03:25;;;;;;;4.50;3.80;;;;;;;;;;4985276;28;20516;-59
2022/03/12 04:05:51;;;;;;;3.00;2.80;;;;;;;;;;4982306;28;20430;-58
2022/03/12 04:08:17;;;;;;;3.80;3.30;;;;;;;;;;4970659;28;20557;-58
2022/03/12 04:10:44;;;;;;;5.40;3.73;;;;;;;;;;4980737;28;20455;-57
2022/03/12 04:13:16;;;;;;;8.23;3.33;;;;;;;;;;4981970;28;20427;-58
2022/03/12 04:15:42;;;;;;;9.10;4.30;;;;;;;;;;4983400;28;20420;-58
2022/03/12 04:18:09;;;;;;;3.87;3.30;;;;;;;;;;4985212;28;20430;-59
2022/03/12 04:20:36;;;;;;;4.43;4.13;;;;;;;;;;4984305;28;20418;-59
2022/03/12 04:23:02;;;;;;;4.07;3.77;;;;;;;;;;4981597;28;20431;-59
2022/03/12 04:25:31;;;;;;;3.70;3.50;;;;;;;;;;4984105;28;20434;-59
2022/03/12 04:27:58;;;;;;;4.50;3.60;;;;;;;;;;4989395;28;20477;-58
2022/03/12 04:30:24;;;;;;;4.13;3.70;;;;;;;;;;4981536;28;20427;-59
2022/03/12 04:32:50;;;;;;;5.40;4.80;;;;;;;;;;4984120;28;20497;-59
2022/03/12 04:35:17;;;;;;;3.43;3.23;;;;;;;;;;4984842;28;20430;-59
2022/03/12 04:37:43;;;;;;;3.87;3.57;;;;;;;;;;4980772;28;20525;-59
2022/03/12 04:40:11;;;;;;;3.60;3.30;;;;;;;;;;4984570;28;20426;-59
2022/03/12 04:42:39;;;;;;;4.60;4.20;;;;;;;;;;4984211;28;20438;-59
2022/03/12 04:45:07;;;;;;;4.00;3.33;;;;;;;;;;4984660;28;21136;-59
2022/03/12 04:47:34;;;;;;;3.50;3.20;;;;;;;;;;4983779;28;20465;-59
2022/03/12 04:50:00;;;;;;;4.07;3.77;;;;;;;;;;4981048;28;20423;-59
2022/03/12 04:52:26;;;;;;;6.03;3.40;;;;;;;;;;4980710;28;20462;-59
2022/03/12 04:54:52;;;;;;;3.87;3.50;;;;;;;;;;4984148;28;20418;-59
2022/03/12 04:57:19;;;;;;;4.00;3.70;;;;;;;;;;4989798;28;20437;-59
2022/03/12 04:59:45;;;;;;;4.00;3.70;;;;;;;;;;4984248;28;20450;-59
2022/03/12 05:02:12;;;;;;;3.97;3.10;;;;;;;;;;4984180;28;20855;-59
2022/03/12 05:04:38;;;;;;;3.10;2.97;;;;;;;;;;4983157;28;20425;-58
2022/03/12 05:07:06;;;;;;;5.23;4.20;;;;;;;;;;4980533;28;20459;-59
2022/03/12 05:09:32;;;;;;;4.03;3.73;;;;;;;;;;4981136;28;20455;-58
2022/03/12 05:12:04;;;;;;;5.43;4.17;;;;;;;;;;4984056;28;20423;-59
2022/03/12 05:14:31;;;;;;;3.70;3.50;;;;;;;;;;4965660;28;20442;-59
2022/03/12 05:16:57;;;;;;;4.50;4.10;;;;;;;;;;4983946;28;20427;-59
2022/03/12 05:19:23;;;;;;;4.87;3.47;;;;;;;;;;4966594;28;20426;-59
2022/03/12 05:21:49;;;;;;;9.63;4.00;;;;;;;;;;4981146;28;20430;-58
2022/03/12 05:24:15;;;;;;;5.00;3.33;;;;;;;;;;4980507;28;20931;-59
2022/03/12 05:26:41;;;;;;;4.77;3.60;;;;;;;;;;4982108;28;20451;-58
2022/03/12 05:29:07;;;;;;;3.10;3.00;;;;;;;;;;4983971;28;20468;-58
2022/03/12 05:31:33;;;;;;;4.20;3.30;;;;;;;;;;4983318;28;20525;-59
2022/03/12 05:33:59;;;;;;;3.90;3.50;;;;;;;;;;4983911;28;20513;-59
2022/03/12 05:36:25;;;;;;;3.50;3.10;;;;;;;;;;4983684;28;20875;-58
2022/03/12 05:38:51;;;;;;;4.00;3.63;;;;;;;;;;4980655;28;20591;-58
2022/03/12 05:41:17;;;;;;;3.40;3.20;;;;;;;;;;4980329;28;20544;-59
2022/03/12 05:43:46;;;;;;;5.30;4.17;;;;;;;;;;4982043;28;20432;-59
2022/03/12 05:46:14;;;;;;;4.50;4.20;;;;;;;;;;4983074;28;20514;-60
2022/03/12 05:48:40;;;;;;;6.37;3.20;;;;;;;;;;4983368;28;20428;-57
2022/03/12 05:51:09;;;;;;;3.37;3.07;;;;;;;;;;4983516;28;20449;-59
2022/03/12 05:53:36;;;;;;;5.03;3.60;;;;;;;;;;4982554;28;20551;-59
2022/03/12 05:56:02;;;;;;;3.17;3.00;;;;;;;;;;4982395;28;20422;-59
2022/03/12 05:58:28;;;;;;;3.87;3.53;;;;;;;;;;4983589;28;20462;-58
2022/03/12 06:00:55;;;;;;;3.87;3.60;;;;;;;;;;4983424;28;20912;-58
2022/03/12 06:03:23;;;;;;;3.90;3.60;;;;;;;;;;4982797;28;20424;-58
2022/03/12 06:05:56;;;;;;;4.50;3.30;;;;;;;;;;4983344;28;20449;-59
2022/03/12 06:08:22;;;;;;;5.77;3.80;;;;;;;;;;4983049;28;20462;-58
2022/03/12 06:10:54;;;;;;;8.33;4.10;;;;;;;;;;4963291;28;20485;-58
2022/03/12 06:13:23;;;;;;;3.67;3.43;;;;;;;;;;4979983;28;20437;-58
2022/03/12 06:15:52;;;;;;;4.33;4.03;;;;;;;;;;4982316;28;20454;-59
2022/03/12 06:18:19;;;;;;;4.63;4.23;;;;;;;;;;4983187;28;20792;-57
2022/03/12 06:20:45;;;;;;;4.20;3.07;;;;;;;;;;4981393;28;20499;-57
2022/03/12 06:23:11;;;;;;;3.60;3.40;;;;;;;;;;4977357;28;21000;-57
2022/03/12 06:25:37;;;;;;;4.73;4.13;;;;;;;;;;4982493;28;20427;-59
2022/03/12 06:28:03;;;;;;;3.93;3.63;;;;;;;;;;4987150;28;20480;-59
2022/03/12 06:30:29;;;;;;;3.70;3.50;;;;;;;;;;4987410;28;20422;-59
2022/03/12 06:32:56;;;;;;;6.03;3.30;;;;;;;;;;4987357;28;20426;-58
2022/03/12 06:35:24;;;;;;;19.40;4.50;;;;;;;;;;4969601;28;20451;-58
2022/03/12 06:37:50;;;;;;;6.93;3.90;;;;;;;;;;4982211;28;20441;-59
2022/03/12 06:40:16;;;;;;;3.03;2.87;;;;;;;;;;4982447;28;20440;-59
2022/03/12 06:42:43;;;;;;;3.87;3.67;;;;;;;;;;4985853;28;20406;-58
2022/03/12 06:45:10;;;;;;;4.50;4.10;;;;;;;;;;4983629;28;20426;-57
2022/03/12 06:47:37;;;;;;;5.10;4.50;;;;;;;;;;4984357;28;20545;-58
2022/03/12 06:50:04;;;;;;;5.43;3.93;;;;;;;;;;4987004;28;20902;-57
2022/03/12 06:52:30;;;;;;;3.87;3.60;;;;;;;;;;4988108;28;20470;-60
2022/03/12 06:54:56;;;;;;;4.17;3.67;;;;;;;;;;4990118;28;20434;-59
2022/03/12 06:57:23;;;;;;;12.47;5.07;;;;;;;;;;4988903;28;20438;-59
2022/03/12 06:59:49;;;;;;;7.00;5.67;;;;;;;;;;4988330;28;20443;-59
2022/03/12 07:02:15;;;;;;;3.70;3.50;;;;;;;;;;4987519;28;20437;-59
2022/03/12 07:04:41;;;;;;;3.77;3.57;;;;;;;;;;4992302;28;20503;-59
2022/03/12 07:07:07;;;;;;;4.00;3.80;;;;;;;;;;4992387;28;20542;-58
2022/03/12 07:09:34;;;;;;;4.33;3.93;;;;;;;;;;4990601;28;20426;-59
2022/03/12 07:12:00;;;;;;;5.10;4.63;;;;;;;;;;4988284;28;20461;-59
2022/03/12 07:14:26;;;;;;;4.97;4.37;;;;;;;;;;4988094;28;20431;-59
2022/03/12 07:16:53;;;;;;;5.87;5.23;;;;;;;;;;4987089;28;20442;-59
2022/03/12 07:19:19;;;;;;;4.07;3.80;;;;;;;;;;4987372;28;20434;-60
2022/03/12 07:21:45;;;;;;;4.60;4.20;;;;;;;;;;4988108;28;20858;-58
2022/03/12 07:24:12;;;;;;;11.13;3.67;;;;;;;;;;4987553;28;20445;-59
2022/03/12 07:26:39;;;;;;;4.07;3.77;;;;;;;;;;4984160;28;20204;-59
2022/03/12 07:29:05;;;;;;;5.53;4.43;;;;;;;;;;4983187;28;20486;-60
2022/03/12 07:31:31;;;;;;;4.97;4.47;;;;;;;;;;4985868;28;20434;-60
2022/03/12 07:33:57;;;;;;;5.07;4.63;;;;;;;;;;4983100;28;20430;-61
2022/03/12 07:36:23;;;;;;;4.50;4.20;;;;;;;;;;4987906;28;20908;-60
2022/03/12 07:38:49;;;;;;;4.70;4.33;;;;;;;;;;4988375;28;20469;-58
2022/03/12 07:41:15;;;;;;;4.60;4.20;;;;;;;;;;4983520;28;20446;-57
2022/03/12 07:43:42;;;;;;;7.33;4.50;;;;;;;;;;4988106;28;20423;-57
2022/03/12 07:46:08;;;;;;;5.20;4.80;;;;;;;;;;4988865;28;20791;-58
2022/03/12 07:48:34;;;;;;;4.13;3.80;;;;;;;;;;4987350;28;20446;-57
2022/03/12 07:51:01;;;;;;;5.13;4.00;;;;;;;;;;4985713;28;20445;-57
2022/03/12 07:53:27;;;;;;;4.73;4.40;;;;;;;;;;4985526;28;20469;-58
2022/03/12 07:55:53;;;;;;;4.43;4.00;;;;;;;;;;4983557;28;20427;-59
2022/03/12 07:58:20;;;;;;;4.53;3.80;;;;;;;;;;4986470;28;20433;-58
2022/03/12 08:00:46;;;;;;;6.10;4.83;;;;;;;;;;4989741;28;20747;-59
2022/03/12 08:03:13;;;;;;;4.47;3.97;;;;;;;;;;4982777;28;20994;-56
2022/03/12 08:05:39;;;;;;;4.90;4.50;;;;;;;;;;4985790;28;20530;-57
2022/03/12 08:08:05;;;;;;;4.17;3.83;;;;;;;;;;4989195;28;20561;-57
2022/03/12 08:11:24;;;;;;;3.57;3.27;;;;;;;;;;4989074;28;20908;-58
2022/03/12 08:13:21;;;;;;;6.07;4.30;;;;;;;;;;4985724;28;20438;-56
2022/03/12 08:15:48;;;;;;;6.30;4.27;;;;;;;;;;4988016;28;20784;-56
2022/03/12 08:18:14;;;;;;;5.00;4.60;;;;;;;;;;4986260;28;20453;-56
2022/03/12 08:20:40;;;;;;;15.00;4.90;;;;;;;;;;4985430;28;20887;-56
2022/03/12 08:23:07;;;;;;;4.90;3.60;;;;;;;;;;4988725;28;20928;-56
2022/03/12 08:25:33;;;;;;;4.90;4.40;;;;;;;;;;4986366;28;20231;-57
2022/03/12 08:27:59;;;;;;;4.40;3.97;;;;;;;;;;4986857;28;20462;-56
2022/03/12 08:30:25;;;;;;;6.93;4.67;;;;;;;;;;4983910;28;20661;-58
2022/03/12 08:32:52;;;;;;;5.20;4.20;;;;;;;;;;4985471;28;20439;-56
2022/03/12 08:35:18;;;;;;;4.70;4.30;;;;;;;;;;4982961;28;20591;-58
2022/03/12 08:37:44;;;;;;;4.30;3.90;;;;;;;;;;4986749;28;20521;-56
2022/03/12 08:40:13;;;;;;;5.83;5.20;;;;;;;;;;4984770;28;20522;-56
2022/03/12 08:42:39;;;;;;;4.63;4.20;;;;;;;;;;4986422;28;20273;-55
2022/03/12 08:45:05;;;;;;;5.63;5.00;;;;;;;;;;4985430;28;20944;-56
2022/03/12 08:47:31;;;;;;;6.50;5.90;;;;;;;;;;4983629;28;21056;-57
2022/03/12 08:49:57;;;;;;;10.33;4.43;;;;;;;;;;4983633;28;20501;-57
2022/03/12 08:52:23;;;;;;;5.10;4.67;;;;;;;;;;4983849;28;21011;-56
2022/03/12 08:54:49;;;;;;;7.80;5.43;;;;;;;;;;4966139;28;20789;-59
2022/03/12 08:57:15;;;;;;;8.10;5.70;;;;;;;;;;4984265;28;20442;-58
2022/03/12 08:59:41;;;;;;;8.17;5.07;;;;;;;;;;4982852;28;20964;-58
2022/03/12 09:02:09;;;;;;;8.60;5.80;;;;;;;;;;4981455;28;20458;-58
2022/03/12 09:04:35;;;;;;;5.40;5.00;;;;;;;;;;4983468;28;20933;-57
2022/03/12 09:07:01;;;;;;;11.20;8.30;;;;;;;;;;4984550;28;20465;-58
2022/03/12 09:09:27;;;;;;;6.90;6.30;;;;;;;;;;4986141;28;20415;-57
2022/03/12 09:11:53;;;;;;;9.43;7.30;;;;;;;;;;4985403;28;20455;-58
2022/03/12 09:14:20;;;;;;;5.67;5.13;;;;;;;;;;4985304;28;20423;-58
2022/03/12 09:16:46;;;;;;;9.67;5.63;;;;;;;;;;4987510;28;20422;-59
2022/03/12 09:19:12;;;;;;;11.50;5.50;;;;;;;;;;4991096;28;20442;-58
2022/03/12 09:21:38;;;;;;;6.50;5.30;;;;;;;;;;4989726;28;20434;-59
2022/03/12 09:24:06;;;;;;;9.83;6.20;;;;;;;;;;4980848;28;20442;-58
2022/03/12 09:26:32;;;;;;;10.67;5.97;;;;;;;;;;4986589;28;20418;-60
2022/03/12 09:28:58;;;;;;;7.53;5.60;;;;;;;;;;4990317;28;20437;-56
2022/03/12 09:31:24;;;;;;;6.67;6.17;;;;;;;;;;4987340;28;20265;-57
2022/03/12 09:33:50;;;;;;;5.57;5.07;;;;;;;;;;4987351;28;20492;-57
2022/03/12 09:36:16;;;;;;;5.70;5.10;;;;;;;;;;4983972;28;20426;-56
2022/03/12 09:38:42;;;;;;;11.30;5.17;;;;;;;;;;4986318;28;20431;-60
2022/03/12 09:41:08;;;;;;;8.60;5.43;;;;;;;;;;4983623;28;20832;-60
2022/03/12 09:43:35;;;;;;;12.60;6.50;;;;;;;;;;4980509;28;20427;-61
2022/03/12 09:46:01;;;;;;;5.07;4.67;;;;;;;;;;4990806;28;20783;-60
2022/03/12 09:48:27;;;;;;;6.80;5.70;;;;;;;;;;4983635;28;20467;-58
2022/03/12 09:50:53;;;;;;;6.77;4.83;;;;;;;;;;4971870;28;20226;-55
2022/03/12 09:53:19;;;;;;;7.10;5.60;;;;;;;;;;4982701;28;20461;-57
2022/03/12 09:55:45;;;;;;;7.97;6.30;;;;;;;;;;4998466;28;20528;-59
2022/03/12 09:58:11;;;;;;;6.87;5.40;;;;;;;;;;4987430;28;20438;-59
2022/03/12 10:00:37;;;;;;;6.40;5.80;;;;;;;;;;4987253;28;20434;-56
2022/03/12 10:03:05;;;;;;;13.63;6.43;;;;;;;;;;4986531;28;20430;-58
2022/03/12 10:05:31;;;;;;;9.07;6.50;;;;;;;;;;4984119;28;20472;-59
2022/03/12 10:07:57;;;;;;;7.17;5.60;;;;;;;;;;4988259;28;20512;-59
2022/03/12 10:10:24;;;;;;;6.53;5.93;;;;;;;;;;4985510;28;20423;-59
2022/03/12 10:12:50;;;;;;;10.40;6.77;;;;;;;;;;4987117;28;20889;-60
2022/03/12 10:15:18;;;;;;;11.50;6.60;;;;;;;;;;4971432;28;20944;-57
2022/03/12 10:17:44;;;;;;;8.13;6.10;;;;;;;;;;4985666;28;20434;-59
2022/03/12 10:20:11;;;;;;;15.03;7.47;;;;;;;;;;4963296;28;20804;-58
2022/03/12 10:22:38;;;;;;;9.13;6.47;;;;;;;;;;4983618;28;20438;-58
2022/03/12 10:25:05;;;;;;;9.20;6.83;;;;;;;;;;4985263;28;20928;-59
2022/03/12 10:27:31;;;;;;;7.67;6.97;;;;;;;;;;4987335;28;20473;-59
2022/03/12 10:29:57;;;;;;;7.77;6.90;;;;;;;;;;4979813;28;20901;-59
2022/03/12 10:32:24;;;;;;;9.23;6.23;;;;;;;;;;4983080;28;20486;-59
2022/03/12 10:34:56;;;;;;;11.40;6.63;;;;;;;;;;4982472;28;20850;-59
2022/03/12 10:37:23;;;;;;;7.83;5.10;;;;;;;;;;4980056;28;20443;-59
2022/03/12 10:40:00;;;;;;;17.37;6.33;;;;;;;;;;4982336;28;20427;-59
2022/03/12 10:42:26;;;;;;;9.33;6.30;;;;;;;;;;4982893;28;20428;-59
2022/03/12 10:44:52;;;;;;;5.30;4.97;;;;;;;;;;4962481;28;20427;-58
2022/03/12 10:47:23;;;;;;;8.67;5.80;;;;;;;;;;4979667;28;20238;-59
2022/03/12 10:49:57;;;;;;;10.40;6.50;;;;;;;;;;4981947;28;20423;-59
2022/03/12 10:52:23;;;;;;;7.57;5.63;;;;;;;;;;4977759;28;20987;-59
2022/03/12 10:54:49;;;;;;;7.07;6.37;;;;;;;;;;4979457;28;21086;-59
2022/03/12 10:57:18;;;;;;;8.13;6.17;;;;;;;;;;4968150;28;20444;-59
2022/03/12 10:59:45;;;;;;;6.63;5.97;;;;;;;;;;4980703;28;20430;-59
2022/03/12 11:02:11;;;;;;;6.73;6.00;;;;;;;;;;4979434;28;20423;-59
2022/03/12 11:04:39;;;;;;;7.50;6.30;;;;;;;;;;4980818;28;20811;-60
2022/03/12 11:07:24;;;;;;;8.80;5.73;;;;;;;;;;4982094;28;20477;-59
2022/03/12 11:09:51;;;;;;;6.20;5.70;;;;;;;;;;4981840;28;20975;-60
2022/03/12 11:12:33;;;;;;;9.00;7.70;;;;;;;;;;4978410;28;20426;-60
2022/03/12 11:15:03;;;;;;;7.17;6.30;;;;;;;;;;4986774;28;20842;-59
2022/03/12 11:17:29;;;;;;;9.90;6.00;;;;;;;;;;4986247;28;20426;-59
2022/03/12 11:19:57;;;;;;;11.53;7.13;;;;;;;;;;4982582;28;20437;-59
2022/03/12 11:22:24;;;;;;;7.23;5.73;;;;;;;;;;4982771;28;20462;-60
2022/03/12 11:24:51;;;;;;;7.17;6.20;;;;;;;;;;4985315;28;20454;-59
2022/03/12 11:27:29;;;;;;;11.83;7.13;;;;;;;;;;4985821;28;20549;-59
2022/03/12 11:29:59;;;;;;;7.30;6.60;;;;;;;;;;4978317;28;20418;-59
2022/03/12 11:32:27;;;;;;;8.97;6.63;;;;;;;;;;4968557;28;20928;-60
2022/03/12 11:35:02;;;;;;;7.50;6.57;;;;;;;;;;4965546;28;20995;-60
2022/03/12 11:37:28;;;;;;;7.23;6.53;;;;;;;;;;4982760;28;20426;-60
2022/03/12 11:39:58;;;;;;;9.67;6.60;;;;;;;;;;4985800;28;20477;-60
2022/03/12 11:42:28;;;;;;;7.30;6.60;;;;;;;;;;4985922;28;20440;-60
2022/03/12 11:44:55;;;;;;;7.90;7.17;;;;;;;;;;4977904;28;20443;-60
2022/03/12 11:47:26;;;;;;;6.60;5.77;;;;;;;;;;4982456;28;20474;-60
2022/03/12 11:49:52;;;;;;;6.93;6.33;;;;;;;;;;4967617;28;20873;-59
2022/03/12 11:52:19;;;;;;;9.67;7.40;;;;;;;;;;4985400;28;20512;-59
2022/03/12 11:54:46;;;;;;;7.30;6.30;;;;;;;;;;4977716;28;20435;-58
2022/03/12 11:57:16;;;;;;;7.40;6.70;;;;;;;;;;4974149;28;20442;-60
2022/03/12 11:59:42;;;;;;;8.67;6.90;;;;;;;;;;4983579;28;20434;-59
2022/03/12 12:02:24;;;;;;;7.40;6.70;;;;;;;;;;4981864;28;20450;-59
2022/03/12 12:04:52;;;;;;;13.70;7.27;;;;;;;;;;4982161;28;20514;-59
2022/03/12 12:07:18;;;;;;;7.43;6.67;;;;;;;;;;4981763;28;20478;-60
2022/03/12 12:09:44;;;;;;;7.00;6.17;;;;;;;;;;4983759;28;20427;-59
2022/03/12 12:12:13;;;;;;;8.17;7.17;;;;;;;;;;4985143;28;20807;-60
2022/03/12 12:14:39;;;;;;;9.60;6.30;;;;;;;;;;4983922;28;20445;-60
2022/03/12 12:17:06;;;;;;;10.77;7.83;;;;;;;;;;4981685;28;20477;-59
2022/03/12 12:19:34;;;;;;;10.33;6.90;;;;;;;;;;4984635;28;20431;-59
2022/03/12 12:22:00;;;;;;;7.80;7.10;;;;;;;;;;4967308;28;20828;-60
2022/03/12 12:24:30;;;;;;;10.37;6.33;;;;;;;;;;4991210;28;20438;-60
2022/03/12 12:26:58;;;;;;;8.60;7.23;;;;;;;;;;4981637;28;20879;-59
2022/03/12 12:29:43;;;;;;;10.43;7.27;;;;;;;;;;4981652;28;20485;-59
2022/03/12 12:32:10;;;;;;;10.33;7.57;;;;;;;;;;4984926;28;20422;-59
2022/03/12 12:34:37;;;;;;;7.97;7.17;;;;;;;;;;4984122;28;20422;-59
2022/03/12 12:37:03;;;;;;;10.63;8.40;;;;;;;;;;4981198;28;20423;-60
2022/03/12 12:39:30;;;;;;;7.57;6.87;;;;;;;;;;4986318;28;20783;-59
2022/03/12 12:41:58;;;;;;;7.43;6.70;;;;;;;;;;4981434;28;20423;-59
2022/03/12 12:44:36;;;;;;;8.63;7.00;;;;;;;;;;4981292;28;20444;-59
2022/03/12 12:47:03;;;;;;;12.10;7.80;;;;;;;;;;4984688;28;20464;-60
2022/03/12 12:49:35;;;;;;;13.13;7.60;;;;;;;;;;4984416;28;20422;-59
2022/03/12 12:52:01;;;;;;;10.77;7.83;;;;;;;;;;4986196;28;20414;-59
2022/03/12 12:54:46;;;;;;;10.27;7.70;;;;;;;;;;4984509;28;20418;-60
2022/03/12 12:57:12;;;;;;;8.60;6.93;;;;;;;;;;4990663;28;20442;-59
2022/03/12 12:59:38;;;;;;;9.90;8.00;;;;;;;;;;4983237;28;20496;-60
2022/03/12 13:02:04;;;;;;;8.10;6.97;;;;;;;;;;4980679;28;20423;-59
2022/03/12 13:04:44;;;;;;;10.00;6.97;;;;;;;;;;4981061;28;20426;-59
2022/03/12 13:07:19;;;;;;;12.03;8.10;;;;;;;;;;4985934;28;20990;-59
2022/03/12 13:09:48;;;;;;;8.30;7.13;;;;;;;;;;4982876;28;20427;-59
2022/03/12 13:12:18;;;;;;;9.90;7.83;;;;;;;;;;4984059;28;20426;-59
2022/03/12 13:14:50;;;;;;;13.97;7.47;;;;;;;;;;4982155;28;20422;-59
2022/03/12 13:17:26;;;;;;;7.40;6.60;;;;;;;;;;4962912;28;20509;-60
2022/03/12 13:19:53;;;;;;;11.20;7.13;;;;;;;;;;4980406;28;20430;-60
2022/03/12 13:22:22;;;;;;;8.47;6.50;;;;;;;;;;4980772;28;20430;-59
2022/03/12 13:24:54;;;;;;;8.63;6.50;;;;;;;;;;4982959;28;20680;-59
2022/03/12 13:27:23;;;;;;;9.77;7.00;;;;;;;;;;4983672;28;20971;-59
2022/03/12 13:30:05;;;;;;;11.03;5.80;;;;;;;;;;4981471;28;20557;-59
2022/03/12 13:32:31;;;;;;;10.13;9.10;;;;;;;;;;4988028;28;20442;-60
2022/03/12 13:35:01;;;;;;;9.87;8.43;;;;;;;;;;4979782;28;20427;-59
2022/03/12 13:37:27;;;;;;;8.57;7.73;;;;;;;;;;4966183;28;20418;-59
2022/03/12 13:40:00;;;;;;;7.50;6.80;;;;;;;;;;4966295;28;20436;-59
2022/03/12 13:42:27;;;;;;;10.77;7.70;;;;;;;;;;4983695;28;20419;-59
2022/03/12 13:44:54;;;;;;;8.40;7.60;;;;;;;;;;4980537;28;20415;-59
2022/03/12 13:47:21;;;;;;;16.73;8.70;;;;;;;;;;4982736;28;20473;-59
2022/03/12 13:49:50;;;;;;;14.53;8.00;;;;;;;;;;4975429;28;20891;-59
2022/03/12 13:52:17;;;;;;;9.07;7.80;;;;;;;;;;4983170;28;20450;-59
2022/03/12 13:54:44;;;;;;;8.60;7.77;;;;;;;;;;4964283;28;20872;-60
2022/03/12 13:57:10;;;;;;;13.73;7.90;;;;;;;;;;4985383;28;21085;-59
2022/03/12 13:59:36;;;;;;;13.00;8.20;;;;;;;;;;4982685;28;20993;-59
2022/03/12 14:02:03;;;;;;;9.20;7.80;;;;;;;;;;4979911;28;20462;-59
2022/03/12 14:04:30;;;;;;;10.00;7.90;;;;;;;;;;4984185;28;20444;-59
2022/03/12 14:06:56;;;;;;;9.40;7.30;;;;;;;;;;4979737;28;20542;-59
2022/03/12 14:09:23;;;;;;;12.97;7.47;;;;;;;;;;4979825;28;20487;-60
2022/03/12 14:11:51;;;;;;;10.00;8.07;;;;;;;;;;4982447;28;20494;-60
2022/03/12 14:14:18;;;;;;;8.30;7.50;;;;;;;;;;4983263;28;20422;-59
2022/03/12 14:16:46;;;;;;;17.90;8.53;;;;;;;;;;4981079;28;20545;-59
2022/03/12 14:19:17;;;;;;;10.63;7.50;;;;;;;;;;4986384;28;20915;-60
2022/03/12 14:21:48;;;;;;;10.70;8.80;;;;;;;;;;4988329;28;20469;-60
2022/03/12 14:24:15;;;;;;;8.13;7.43;;;;;;;;;;4983104;28;20426;-59
2022/03/12 14:26:50;;;;;;;11.57;8.53;;;;;;;;;;4981295;28;20652;-59
2022/03/12 14:29:24;;;;;;;15.10;8.87;;;;;;;;;;4979911;28;20419;-60
2022/03/12 14:31:51;;;;;;;9.97;7.50;;;;;;;;;;4982295;28;20430;-59
2022/03/12 14:34:18;;;;;;;11.07;8.20;;;;;;;;;;4983043;28;20481;-59
2022/03/12 14:36:44;;;;;;;9.80;7.87;;;;;;;;;;4981035;28;20419;-59
2022/03/12 14:39:14;;;;;;;10.27;8.47;;;;;;;;;;4982166;28;20517;-59
2022/03/12 14:41:40;;;;;;;15.07;8.53;;;;;;;;;;4957493;28;20435;-59